createdAt,value
2018-08-17T00:02:00.600Z,5.40
2018-08-17T00:04:28.120Z,5.40
2018-08-17T00:06:56.336Z,5.67
2018-08-17T00:09:23.854Z,6.60
2018-08-17T00:11:51.386Z,5.57
2018-08-17T00:14:18.906Z,5.83
2018-08-17T00:16:46.473Z,5.80
2018-08-17T00:19:14.056Z,6.17
2018-08-17T00:21:41.606Z,6.03
2018-08-17T00:24:09.151Z,5.80
2018-08-17T00:26:36.710Z,5.87
2018-08-17T00:29:04.300Z,5.40
2018-08-17T00:31:31.847Z,6.10
2018-08-17T00:33:59.982Z,6.27
2018-08-17T00:36:27.583Z,7.20
2018-08-17T00:38:55.113Z,5.30
2018-08-17T00:41:22.643Z,5.90
2018-08-17T00:43:50.242Z,6.67
2018-08-17T00:46:17.820Z,5.67
2018-08-17T00:48:45.408Z,6.50
2018-08-17T00:51:12.969Z,7.77
2018-08-17T00:53:40.537Z,6.20
2018-08-17T00:56:08.072Z,6.00
2018-08-17T00:58:35.604Z,6.67
2018-08-17T01:01:03.220Z,6.70
2018-08-17T01:03:30.809Z,6.27
2018-08-17T01:05:58.974Z,6.03
2018-08-17T01:08:26.608Z,6.33
2018-08-17T01:10:54.248Z,5.93
2018-08-17T01:13:21.797Z,5.70
2018-08-17T01:15:49.345Z,6.73
2018-08-17T01:18:16.893Z,6.70
2018-08-17T01:20:44.437Z,6.93
2018-08-17T01:23:12.070Z,6.60
2018-08-17T01:25:39.615Z,7.50
2018-08-17T01:28:07.969Z,7.10
2018-08-17T01:30:35.504Z,7.77
2018-08-17T01:33:03.141Z,6.70
2018-08-17T01:35:31.134Z,7.40
2018-08-17T01:37:59.310Z,6.70
2018-08-17T01:40:26.865Z,6.83
2018-08-17T01:42:54.501Z,7.07
2018-08-17T01:45:22.097Z,6.37
2018-08-17T01:47:49.652Z,5.80
2018-08-17T01:50:17.186Z,6.80
2018-08-17T01:52:44.725Z,6.50
2018-08-17T01:55:12.324Z,6.80
2018-08-17T01:57:40.004Z,6.60
2018-08-17T02:00:09.321Z,6.03
2018-08-17T02:02:37.961Z,7.00
2018-08-17T02:05:05.709Z,7.07
2018-08-17T02:07:33.502Z,6.97
2018-08-17T02:10:01.058Z,7.50
2018-08-17T02:12:28.949Z,7.70
2018-08-17T02:14:56.551Z,7.17
2018-08-17T02:17:24.094Z,7.67
2018-08-17T02:19:51.677Z,7.30
2018-08-17T02:22:19.220Z,8.47
2018-08-17T02:24:47.936Z,8.23
2018-08-17T02:27:15.482Z,7.00
2018-08-17T02:29:43.006Z,6.40
2018-08-17T02:32:10.560Z,8.60
2018-08-17T02:34:38.161Z,8.20
2018-08-17T02:37:05.732Z,6.90
2018-08-17T02:39:33.310Z,7.43
2018-08-17T02:42:00.896Z,8.50
2018-08-17T02:44:29.246Z,8.20
2018-08-17T02:46:56.801Z,8.37
2018-08-17T02:49:24.410Z,8.10
2018-08-17T02:51:51.961Z,7.20
2018-08-17T02:54:19.497Z,7.60
2018-08-17T02:56:47.115Z,6.90
2018-08-17T02:59:14.685Z,6.90
2018-08-17T03:01:42.235Z,8.07
2018-08-17T03:04:09.804Z,8.20
2018-08-17T03:06:37.344Z,8.23
2018-08-17T03:09:06.838Z,7.03
2018-08-17T03:11:34.376Z,7.50
2018-08-17T03:14:02.380Z,7.10
2018-08-17T03:16:30.148Z,7.47
2018-08-17T03:18:57.744Z,8.50
2018-08-17T03:21:25.282Z,8.53
2018-08-17T03:23:52.821Z,7.80
2018-08-17T03:26:20.329Z,7.40
2018-08-17T03:28:47.894Z,8.60
2018-08-17T03:31:15.461Z,8.57
2018-08-17T03:33:42.982Z,7.50
2018-08-17T03:36:10.511Z,8.13
2018-08-17T03:38:38.049Z,8.50
2018-08-17T03:41:05.735Z,9.00
2018-08-17T03:43:33.279Z,8.60
2018-08-17T03:46:00.835Z,8.37
2018-08-17T03:48:29.105Z,9.60
2018-08-17T03:50:56.642Z,7.77
2018-08-17T03:53:30.986Z,7.90
2018-08-17T03:55:58.563Z,7.00
2018-08-17T03:58:26.172Z,7.67
2018-08-17T04:00:53.761Z,8.20
2018-08-17T04:03:21.277Z,7.73
2018-08-17T04:05:48.933Z,8.37
2018-08-17T04:08:16.472Z,7.10
2018-08-17T04:10:45.095Z,7.90
2018-08-17T04:13:12.621Z,8.47
2018-08-17T04:15:40.248Z,7.60
2018-08-17T04:18:08.707Z,7.47
2018-08-17T04:20:36.376Z,8.03
2018-08-17T04:23:04.019Z,7.97
2018-08-17T04:25:32.013Z,9.10
2018-08-17T04:28:00.299Z,6.90
2018-08-17T04:30:27.865Z,7.90
2018-08-17T04:32:55.403Z,8.97
2018-08-17T04:35:23.038Z,8.57
2018-08-17T04:37:50.614Z,7.93
2018-08-17T04:40:18.177Z,8.20
2018-08-17T04:42:45.680Z,8.57
2018-08-17T04:45:13.220Z,7.33
2018-08-17T04:47:40.755Z,8.50
2018-08-17T04:50:09.259Z,8.50
2018-08-17T04:52:37.258Z,8.63
2018-08-17T04:55:04.897Z,8.40
2018-08-17T04:57:32.531Z,8.30
2018-08-17T05:00:00.732Z,8.03
2018-08-17T05:02:28.733Z,7.40
2018-08-17T05:04:56.265Z,7.93
2018-08-17T05:07:23.744Z,8.10
2018-08-17T05:09:51.269Z,7.40
2018-08-17T05:12:18.822Z,8.43
2018-08-17T05:14:46.349Z,8.90
2018-08-17T05:17:13.889Z,9.57
2018-08-17T05:19:41.446Z,10.00
2018-08-17T05:22:08.974Z,11.03
2018-08-17T05:24:36.480Z,8.70
2018-08-17T05:27:04.192Z,9.20
2018-08-17T05:29:31.784Z,9.20
2018-08-17T05:32:00.132Z,17.20
2018-08-17T05:34:27.684Z,8.70
2018-08-17T05:36:55.250Z,8.97
2018-08-17T05:39:22.776Z,7.50
2018-08-17T05:41:50.408Z,9.00
2018-08-17T05:44:17.978Z,9.33
2018-08-17T05:46:46.776Z,10.33
2018-08-17T05:49:14.435Z,10.50
2018-08-17T05:51:41.992Z,10.93
2018-08-17T05:54:09.578Z,11.00
2018-08-17T05:56:37.198Z,9.77
2018-08-17T05:59:04.670Z,10.10
2018-08-17T06:01:32.277Z,10.03
2018-08-17T06:04:00.317Z,9.33
2018-08-17T06:06:27.901Z,8.73
2018-08-17T06:08:55.431Z,10.50
2018-08-17T06:11:23.146Z,8.83
2018-08-17T06:13:50.647Z,9.80
2018-08-17T06:16:18.404Z,9.37
2018-08-17T06:18:47.089Z,8.40
2018-08-17T06:21:14.627Z,8.87
2018-08-17T06:23:42.292Z,7.60
2018-08-17T06:26:09.905Z,9.50
2018-08-17T06:28:37.426Z,8.30
2018-08-17T06:31:05.096Z,8.90
2018-08-17T06:33:32.689Z,10.07
2018-08-17T06:36:01.200Z,8.07
2018-08-17T06:38:29.033Z,8.47
2018-08-17T06:40:56.615Z,8.93
2018-08-17T06:43:24.164Z,8.77
2018-08-17T06:45:51.745Z,9.47
2018-08-17T06:48:19.276Z,9.70
2018-08-17T06:50:47.177Z,8.67
2018-08-17T06:53:14.647Z,9.13
2018-08-17T06:55:42.184Z,8.80
2018-08-17T06:58:09.758Z,7.90
2018-08-17T07:00:37.290Z,8.73
2018-08-17T07:03:04.885Z,8.40
2018-08-17T07:05:32.443Z,8.10
2018-08-17T07:08:00.676Z,7.67
2018-08-17T07:10:28.833Z,8.77
2018-08-17T07:12:56.372Z,8.57
2018-08-17T07:15:23.944Z,9.53
2018-08-17T07:17:51.541Z,8.33
2018-08-17T07:20:19.107Z,8.20
2018-08-17T07:22:47.510Z,8.07
2018-08-17T07:25:15.096Z,8.80
2018-08-17T07:27:42.709Z,7.70
2018-08-17T07:30:10.253Z,8.37
2018-08-17T07:32:37.830Z,8.20
2018-08-17T07:35:07.055Z,8.73
2018-08-17T07:37:34.590Z,8.60
2018-08-17T07:40:02.112Z,8.30
2018-08-17T07:42:30.422Z,7.37
2018-08-17T07:44:57.982Z,7.27
2018-08-17T07:47:25.566Z,6.83
2018-08-17T07:49:53.144Z,6.53
2018-08-17T07:52:20.676Z,6.80
2018-08-17T07:54:48.218Z,6.30
2018-08-17T07:57:15.781Z,6.70
2018-08-17T07:59:43.321Z,5.20
2018-08-17T08:02:10.916Z,5.50
2018-08-17T08:04:38.459Z,5.63
2018-08-17T08:07:06.042Z,6.47
2018-08-17T08:09:33.594Z,6.33
2018-08-17T08:12:01.156Z,6.17
2018-08-17T08:14:28.973Z,5.90
2018-08-17T08:16:56.504Z,5.67
2018-08-17T08:19:24.148Z,6.10
2018-08-17T08:21:51.740Z,6.73
2018-08-17T08:24:19.858Z,6.00
2018-08-17T08:26:48.152Z,5.93
2018-08-17T08:29:15.968Z,5.50
2018-08-17T08:31:43.612Z,6.17
2018-08-17T08:34:11.298Z,5.30
2018-08-17T08:36:38.843Z,6.17
2018-08-17T08:39:07.912Z,6.00
2018-08-17T08:41:35.618Z,5.80
2018-08-17T08:44:03.374Z,6.17
2018-08-17T08:46:30.926Z,5.50
2018-08-17T08:48:58.965Z,6.30
2018-08-17T08:51:26.510Z,5.90
2018-08-17T08:53:54.092Z,5.90
2018-08-17T08:56:21.661Z,5.80
2018-08-17T08:58:49.519Z,5.40
2018-08-17T09:01:17.099Z,5.00
2018-08-17T09:03:44.681Z,5.20
2018-08-17T09:06:12.283Z,5.47
2018-08-17T09:08:39.885Z,5.50
2018-08-17T09:11:07.470Z,4.70
2018-08-17T09:13:35.139Z,4.50
2018-08-17T09:16:02.799Z,4.70
2018-08-17T09:18:31.351Z,4.33
2018-08-17T09:20:59.807Z,4.80
2018-08-17T09:23:27.436Z,4.70
2018-08-17T09:25:55.057Z,3.53
2018-08-17T09:28:22.672Z,3.70
2018-08-17T09:30:50.334Z,3.47
2018-08-17T09:33:17.886Z,4.57
2018-08-17T09:35:45.477Z,4.17
2018-08-17T09:38:13.047Z,4.00
2018-08-17T09:40:40.602Z,4.30
2018-08-17T09:43:08.185Z,3.83
2018-08-17T09:45:35.740Z,4.43
2018-08-17T09:48:03.394Z,4.60
2018-08-17T09:50:30.921Z,4.77
2018-08-17T09:52:58.538Z,4.00
2018-08-17T09:55:26.140Z,4.07
2018-08-17T09:57:53.800Z,5.00
2018-08-17T10:00:25.906Z,4.70
2018-08-17T10:02:59.110Z,4.10
2018-08-17T10:05:32.365Z,3.90
2018-08-17T10:08:06.007Z,4.13
2018-08-17T10:10:33.573Z,4.10
2018-08-17T10:13:01.140Z,3.37
2018-08-17T10:15:29.656Z,3.73
2018-08-17T10:17:57.244Z,3.53
2018-08-17T10:20:24.813Z,3.50
2018-08-17T10:22:52.380Z,3.07
2018-08-17T10:25:23.014Z,3.00
2018-08-17T10:27:51.727Z,3.80
2018-08-17T10:30:20.267Z,3.30
2018-08-17T10:32:52.694Z,3.50
2018-08-17T10:35:40.124Z,4.07
2018-08-17T10:38:07.921Z,4.00
2018-08-17T10:40:35.509Z,3.37
2018-08-17T10:43:04.611Z,3.10
2018-08-17T10:45:32.506Z,4.07
2018-08-17T10:48:00.829Z,3.33
2018-08-17T10:50:29.822Z,3.23
2018-08-17T10:53:01.223Z,3.97
2018-08-17T10:55:40.153Z,3.90
2018-08-17T10:58:09.343Z,3.70
2018-08-17T11:00:36.898Z,4.13
2018-08-17T11:03:04.590Z,3.73
2018-08-17T11:05:32.192Z,3.97
2018-08-17T11:08:00.700Z,3.60
2018-08-17T11:10:28.785Z,3.60
2018-08-17T11:12:56.342Z,3.27
2018-08-17T11:15:23.906Z,3.60
2018-08-17T11:17:51.474Z,3.17
2018-08-17T11:20:19.072Z,3.33
2018-08-17T11:22:46.645Z,3.87
2018-08-17T11:25:14.149Z,3.60
2018-08-17T11:27:41.669Z,2.87
2018-08-17T11:30:10.925Z,4.07
2018-08-17T11:32:38.843Z,3.50
2018-08-17T11:35:06.439Z,4.00
2018-08-17T11:37:34.039Z,3.23
2018-08-17T11:40:02.802Z,3.70
2018-08-17T11:42:39.277Z,3.80
2018-08-17T11:45:08.815Z,3.60
2018-08-17T11:47:36.635Z,3.30
2018-08-17T11:50:04.991Z,3.20
2018-08-17T11:52:37.114Z,3.93
2018-08-17T11:55:04.710Z,3.30
2018-08-17T11:57:32.310Z,3.40
2018-08-17T12:00:00.406Z,3.10
2018-08-17T12:02:27.934Z,3.80
2018-08-17T12:04:55.493Z,3.10
2018-08-17T12:07:23.069Z,3.27
2018-08-17T12:09:55.503Z,3.30
2018-08-17T12:12:23.053Z,3.97
2018-08-17T12:14:51.403Z,3.50
2018-08-17T12:17:18.979Z,3.60
2018-08-17T12:19:46.537Z,3.40
2018-08-17T12:22:14.130Z,3.20
2018-08-17T12:24:42.090Z,3.20
2018-08-17T12:27:11.108Z,3.47
2018-08-17T12:29:38.739Z,3.70
2018-08-17T12:32:07.201Z,3.23
2018-08-17T12:34:34.750Z,3.60
2018-08-17T12:37:02.321Z,2.90
2018-08-17T12:39:30.330Z,3.00
2018-08-17T12:41:57.935Z,3.17
2018-08-17T12:44:25.473Z,3.27
2018-08-17T12:46:53.044Z,2.97
2018-08-17T12:49:20.617Z,3.10
2018-08-17T12:51:48.224Z,3.03
2018-08-17T12:54:34.110Z,2.97
2018-08-17T12:57:02.685Z,3.10
2018-08-17T12:59:31.434Z,2.50
2018-08-17T13:01:59.445Z,2.27
2018-08-17T13:04:27.697Z,2.77
2018-08-17T13:06:55.736Z,2.53
2018-08-17T13:09:23.563Z,2.70
2018-08-17T13:11:57.541Z,2.70
2018-08-17T13:14:25.302Z,2.53
2018-08-17T13:16:54.033Z,2.60
2018-08-17T13:19:21.586Z,2.27
2018-08-17T13:21:49.202Z,2.77
2018-08-17T13:24:16.745Z,2.70
2018-08-17T13:26:44.413Z,2.57
2018-08-17T13:29:12.019Z,2.40
2018-08-17T13:31:39.579Z,1.93
2018-08-17T13:34:07.129Z,2.90
2018-08-17T13:36:34.750Z,2.80
2018-08-17T13:39:02.448Z,2.10
2018-08-17T13:41:30.775Z,2.97
2018-08-17T13:43:58.820Z,2.50
2018-08-17T13:46:26.406Z,2.20
2018-08-17T13:48:54.039Z,3.10
2018-08-17T13:51:21.595Z,2.30
2018-08-17T13:53:49.178Z,2.53
2018-08-17T13:56:16.730Z,2.30
2018-08-17T13:58:44.280Z,2.37
2018-08-17T14:01:11.821Z,2.17
2018-08-17T14:03:39.369Z,2.27
2018-08-17T14:06:06.952Z,2.33
2018-08-17T14:08:34.487Z,2.10
2018-08-17T14:11:02.065Z,1.80
2018-08-17T14:13:29.653Z,2.10
2018-08-17T14:15:57.185Z,2.03
2018-08-17T14:18:24.742Z,2.03
2018-08-17T14:20:52.784Z,1.90
2018-08-17T14:23:20.330Z,2.10
2018-08-17T14:25:47.879Z,2.30
2018-08-17T14:28:15.426Z,2.30
2018-08-17T14:30:42.970Z,1.90
2018-08-17T14:33:10.510Z,1.73
2018-08-17T14:35:38.057Z,2.27
2018-08-17T14:38:05.677Z,1.83
2018-08-17T14:40:33.286Z,2.10
2018-08-17T14:43:00.864Z,1.73
2018-08-17T14:45:29.081Z,2.00
2018-08-17T14:47:56.608Z,1.60
2018-08-17T14:50:24.244Z,2.00
2018-08-17T14:52:51.939Z,1.70
2018-08-17T14:55:19.756Z,2.10
2018-08-17T14:57:47.375Z,1.67
2018-08-17T15:00:15.166Z,1.77
2018-08-17T15:02:42.932Z,2.17
2018-08-17T15:05:12.258Z,2.20
2018-08-17T15:07:40.156Z,2.30
2018-08-17T15:10:09.185Z,2.00
2018-08-17T15:12:36.815Z,2.10
2018-08-17T15:15:04.479Z,1.80
2018-08-17T15:17:32.061Z,1.97
2018-08-17T15:20:00.116Z,2.10
2018-08-17T15:22:27.653Z,2.10
2018-08-17T15:24:55.209Z,1.90
2018-08-17T15:27:22.758Z,2.10
2018-08-17T15:29:50.317Z,2.03
2018-08-17T15:32:17.881Z,1.63
2018-08-17T15:34:45.464Z,2.00
2018-08-17T15:37:13.081Z,1.70
2018-08-17T15:39:40.687Z,2.13
2018-08-17T15:42:08.579Z,1.93
2018-08-17T15:44:36.155Z,1.80
2018-08-17T15:47:03.817Z,2.03
2018-08-17T15:49:32.373Z,1.50
2018-08-17T15:52:01.233Z,1.80
2018-08-17T15:54:29.609Z,1.60
2018-08-17T15:56:57.351Z,1.43
2018-08-17T15:59:24.945Z,1.97
2018-08-17T16:01:52.523Z,1.90
2018-08-17T16:04:20.147Z,2.07
2018-08-17T16:06:47.743Z,2.00
2018-08-17T16:09:15.348Z,1.90
2018-08-17T16:11:42.905Z,1.70
2018-08-17T16:14:10.499Z,1.60
2018-08-17T16:16:38.138Z,1.67
2018-08-17T16:19:05.760Z,1.47
2018-08-17T16:21:33.902Z,1.80
2018-08-17T16:24:02.666Z,1.70
2018-08-17T16:26:30.510Z,1.73
2018-08-17T16:28:59.186Z,1.90
2018-08-17T16:31:26.884Z,2.27
2018-08-17T16:33:54.618Z,1.63
2018-08-17T16:36:22.246Z,1.80
2018-08-17T16:38:49.838Z,1.97
2018-08-17T16:41:17.464Z,2.10
2018-08-17T16:43:46.496Z,2.00
2018-08-17T16:46:14.142Z,1.70
2018-08-17T16:48:42.275Z,1.97
2018-08-17T16:51:10.270Z,1.90
2018-08-17T16:53:37.868Z,2.83
2018-08-17T16:56:05.442Z,1.80
2018-08-17T16:58:33.149Z,1.40
2018-08-17T17:01:00.823Z,2.17
2018-08-17T17:03:29.030Z,2.03
2018-08-17T17:05:59.861Z,1.70
2018-08-17T17:08:27.528Z,2.10
2018-08-17T17:10:55.970Z,1.73
2018-08-17T17:13:23.657Z,2.27
2018-08-17T17:15:51.288Z,1.90
2018-08-17T17:18:18.896Z,1.50
2018-08-17T17:20:46.566Z,2.23
2018-08-17T17:23:14.098Z,1.63
2018-08-17T17:25:41.718Z,2.13
2018-08-17T17:28:09.336Z,2.00
2018-08-17T17:30:43.406Z,2.33
2018-08-17T17:33:11.253Z,2.40
2018-08-17T17:35:40.113Z,2.50
2018-08-17T17:38:08.157Z,1.73
2018-08-17T17:40:35.761Z,2.50
2018-08-17T17:43:03.590Z,2.60
2018-08-17T17:45:31.179Z,2.10
2018-08-17T17:47:59.721Z,2.80
2018-08-17T17:50:27.311Z,2.80
2018-08-17T17:52:55.342Z,2.43
2018-08-17T17:55:23.577Z,2.93
2018-08-17T17:57:52.719Z,2.37
2018-08-17T18:00:20.411Z,2.50
2018-08-17T18:02:48.879Z,2.57
2018-08-17T18:05:17.591Z,2.30
2018-08-17T18:07:48.035Z,2.60
2018-08-17T18:10:16.969Z,2.67
2018-08-17T18:12:44.563Z,2.50
2018-08-17T18:15:12.694Z,2.30
2018-08-17T18:17:40.459Z,2.80
2018-08-17T18:20:08.478Z,2.23
2018-08-17T18:22:36.071Z,2.27
2018-08-17T18:25:18.466Z,2.23
2018-08-17T18:27:47.143Z,2.37
2018-08-17T18:30:14.701Z,2.50
2018-08-17T18:32:42.521Z,2.60
2018-08-17T18:35:10.471Z,2.60
2018-08-17T18:37:38.132Z,2.43
2018-08-17T18:40:06.610Z,2.97
2018-08-17T18:42:35.116Z,2.53
2018-08-17T18:45:02.733Z,2.47
2018-08-17T18:47:30.561Z,2.97
2018-08-17T18:49:58.741Z,4.60
2018-08-17T18:52:26.337Z,3.13
2018-08-17T18:54:53.890Z,3.43
2018-08-17T18:57:21.480Z,2.97
2018-08-17T18:59:49.060Z,3.60
2018-08-17T19:02:16.708Z,2.97
2018-08-17T19:04:44.272Z,2.57
2018-08-17T19:07:11.868Z,3.03
2018-08-17T19:09:39.446Z,2.90
2018-08-17T19:12:07.048Z,3.40
2018-08-17T19:14:39.848Z,3.43
2018-08-17T19:17:11.538Z,3.43
2018-08-17T19:19:39.122Z,3.80
2018-08-17T19:22:06.681Z,3.30
2018-08-17T19:24:34.304Z,4.30
2018-08-17T19:27:01.882Z,4.00
2018-08-17T19:29:30.048Z,3.90
2018-08-17T19:32:00.832Z,3.83
2018-08-17T19:34:29.510Z,4.33
2018-08-17T19:36:57.932Z,4.00
2018-08-17T19:39:30.984Z,5.07
2018-08-17T19:41:59.962Z,4.00
2018-08-17T19:44:27.646Z,3.43
2018-08-17T19:46:55.207Z,5.13
2018-08-17T19:49:22.888Z,3.70
2018-08-17T19:51:50.470Z,4.10
2018-08-17T19:54:18.100Z,3.80
2018-08-17T19:56:45.718Z,4.50
2018-08-17T19:59:13.439Z,3.90
2018-08-17T20:01:41.092Z,4.10
2018-08-17T20:04:08.899Z,4.00
2018-08-17T20:06:36.500Z,3.60
2018-08-17T20:09:06.302Z,4.17
2018-08-17T20:11:33.901Z,5.00
2018-08-17T20:14:01.485Z,4.83
2018-08-17T20:16:29.704Z,4.23
2018-08-17T20:18:59.515Z,4.60
2018-08-17T20:21:27.116Z,4.30
2018-08-17T20:23:54.720Z,4.93
2018-08-17T20:26:23.513Z,5.17
2018-08-17T20:28:50.886Z,5.13
2018-08-17T20:31:18.895Z,4.90
2018-08-17T20:33:46.497Z,5.23
2018-08-17T20:36:15.805Z,4.70
2018-08-17T20:38:43.345Z,4.83
2018-08-17T20:41:10.940Z,4.70
2018-08-17T20:43:38.531Z,4.93
2018-08-17T20:46:06.189Z,4.63
2018-08-17T20:48:33.774Z,4.70
2018-08-17T20:51:07.127Z,4.57
2018-08-17T20:53:34.767Z,4.17
2018-08-17T20:56:02.437Z,5.00
2018-08-17T20:58:30.662Z,5.20
2018-08-17T21:00:59.415Z,5.40
2018-08-17T21:03:27.023Z,5.60
2018-08-17T21:05:54.613Z,4.60
2018-08-17T21:08:22.224Z,5.17
2018-08-17T21:10:49.781Z,5.30
2018-08-17T21:13:17.356Z,5.50
2018-08-17T21:15:44.912Z,5.23
2018-08-17T21:18:12.459Z,5.27
2018-08-17T21:20:40.044Z,5.70
2018-08-17T21:23:08.022Z,5.60
2018-08-17T21:25:35.610Z,5.97
2018-08-17T21:28:03.513Z,6.07
2018-08-17T21:30:31.074Z,5.77
2018-08-17T21:33:00.286Z,5.60
2018-08-17T21:35:28.685Z,6.03
2018-08-17T21:37:56.256Z,7.20
2018-08-17T21:40:26.985Z,6.60
2018-08-17T21:42:55.156Z,6.20
2018-08-17T21:45:22.737Z,6.70
2018-08-17T21:47:50.340Z,6.30
2018-08-17T21:50:17.895Z,7.20
2018-08-17T21:52:45.784Z,6.80
2018-08-17T21:55:13.743Z,6.50
2018-08-17T21:57:41.392Z,7.60
2018-08-17T22:00:12.372Z,6.80
2018-08-17T22:02:40.067Z,6.10
2018-08-17T22:05:09.111Z,6.83
2018-08-17T22:07:36.712Z,7.10
2018-08-17T22:10:04.671Z,6.83
2018-08-17T22:12:32.307Z,7.20
2018-08-17T22:15:00.493Z,8.00
2018-08-17T22:17:33.592Z,7.33
2018-08-17T22:20:01.495Z,6.50
2018-08-17T22:22:29.101Z,6.40
2018-08-17T22:24:57.713Z,7.37
2018-08-17T22:27:26.441Z,7.20
2018-08-17T22:29:56.113Z,9.00
2018-08-17T22:32:24.079Z,8.10
2018-08-17T22:34:52.056Z,8.30
2018-08-17T22:37:19.769Z,7.97
2018-08-17T22:39:47.640Z,9.30
2018-08-17T22:42:17.073Z,8.17
2018-08-17T22:44:44.706Z,8.50
2018-08-17T22:47:16.509Z,8.70
2018-08-17T22:49:44.606Z,7.93
2018-08-17T22:52:12.265Z,8.23
2018-08-17T22:54:44.600Z,7.40
2018-08-17T22:57:12.206Z,7.90
2018-08-17T22:59:40.224Z,7.43
2018-08-17T23:02:08.332Z,7.93
2018-08-17T23:04:35.884Z,8.17
2018-08-17T23:07:03.747Z,7.50
2018-08-17T23:09:31.579Z,8.40
2018-08-17T23:11:59.403Z,7.73
2018-08-17T23:14:27.103Z,7.87
2018-08-17T23:16:54.649Z,8.57
2018-08-17T23:19:22.228Z,7.27
2018-08-17T23:21:49.810Z,7.27
2018-08-17T23:24:17.480Z,7.90
2018-08-17T23:26:44.941Z,7.40
2018-08-17T23:29:12.466Z,9.47
2018-08-17T23:31:40.051Z,7.90
2018-08-17T23:34:07.691Z,7.77
2018-08-17T23:36:35.220Z,9.03
2018-08-17T23:39:03.427Z,7.50
2018-08-17T23:41:31.022Z,7.80
2018-08-17T23:43:58.566Z,8.20
2018-08-17T23:46:26.191Z,8.50
2018-08-17T23:48:53.716Z,7.90
2018-08-17T23:51:21.330Z,8.73
2018-08-17T23:53:48.892Z,7.60
2018-08-17T23:56:16.451Z,9.03
2018-08-17T23:58:43.998Z,8.63
